createdAt,value
2023-01-13T00:00:31.430Z,5.40
2023-01-13T00:02:59.524Z,4.90
2023-01-13T00:05:28.334Z,5.15
2023-01-13T00:07:56.294Z,5.07
2023-01-13T00:10:24.241Z,5.15
2023-01-13T00:12:53.711Z,4.30
2023-01-13T00:15:23.042Z,4.07
2023-01-13T00:17:51.205Z,4.88
2023-01-13T00:20:19.318Z,5.07
2023-01-13T00:22:47.294Z,4.72
2023-01-13T00:25:15.478Z,5.07
2023-01-13T00:27:43.650Z,4.53
2023-01-13T00:30:14.459Z,5.47
2023-01-13T00:32:42.514Z,5.50
2023-01-13T00:35:10.797Z,5.65
2023-01-13T00:37:39.450Z,7.07
2023-01-13T00:40:08.763Z,5.85
2023-01-13T00:42:54.055Z,5.70
2023-01-13T00:45:23.416Z,6.57
2023-01-13T00:47:51.900Z,6.07
2023-01-13T00:50:20.106Z,5.70
2023-01-13T00:52:48.125Z,6.45
2023-01-13T00:55:16.661Z,6.80
2023-01-13T00:57:44.605Z,7.40
2023-01-13T01:00:13.751Z,7.18
2023-01-13T01:02:43.082Z,6.28
2023-01-13T01:05:11.757Z,5.80
2023-01-13T01:07:40.037Z,7.28
2023-01-13T01:10:08.942Z,5.30
2023-01-13T01:12:36.947Z,6.47
2023-01-13T01:15:09.277Z,6.35
2023-01-13T01:17:37.729Z,6.25
2023-01-13T01:20:08.262Z,5.80
2023-01-13T01:22:36.219Z,6.22
2023-01-13T01:25:04.462Z,6.68
2023-01-13T01:27:32.517Z,6.97
2023-01-13T01:30:00.617Z,7.05
2023-01-13T01:32:29.904Z,6.53
2023-01-13T01:34:57.842Z,5.47
2023-01-13T01:37:27.267Z,6.05
2023-01-13T01:39:55.196Z,6.80
2023-01-13T01:42:41.195Z,6.68
2023-01-13T01:45:18.708Z,7.05
2023-01-13T01:47:49.380Z,7.60
2023-01-13T01:50:19.720Z,6.28
2023-01-13T01:52:53.989Z,7.85
2023-01-13T01:55:25.322Z,5.90
2023-01-13T01:57:57.341Z,6.35
2023-01-13T02:00:28.512Z,6.20
2023-01-13T02:02:58.240Z,6.13
2023-01-13T02:05:26.717Z,6.22
2023-01-13T02:07:59.090Z,6.32
2023-01-13T02:10:29.615Z,5.45
2023-01-13T02:13:01.721Z,5.50
2023-01-13T02:15:37.289Z,6.60
2023-01-13T02:18:22.549Z,6.75
2023-01-13T02:21:13.635Z,6.47
2023-01-13T02:24:52.199Z,5.18
2023-01-13T02:27:45.235Z,5.13
2023-01-13T02:30:41.473Z,5.83
2023-01-13T02:33:26.187Z,6.55
2023-01-13T02:36:02.110Z,6.38
2023-01-13T02:38:34.260Z,7.32
2023-01-13T02:41:20.439Z,6.88
2023-01-13T02:44:10.541Z,7.47
2023-01-13T02:46:49.065Z,6.55
2023-01-13T02:49:24.616Z,7.68
2023-01-13T02:51:56.116Z,7.05
2023-01-13T02:54:29.451Z,6.22
2023-01-13T02:59:29.174Z,7.28
2023-01-13T03:02:00.502Z,6.72
2023-01-13T03:04:59.698Z,7.07
2023-01-13T03:07:55.767Z,6.40
2023-01-13T03:10:47.686Z,7.00
2023-01-13T03:13:27.213Z,6.00
2023-01-13T03:16:06.602Z,6.22
2023-01-13T03:18:45.828Z,6.10
2023-01-13T03:21:22.194Z,5.88
2023-01-13T03:23:52.786Z,5.93
2023-01-13T03:26:27.907Z,6.32
2023-01-13T03:29:03.335Z,5.50
2023-01-13T03:31:34.309Z,5.47
2023-01-13T03:34:11.047Z,5.68
2023-01-13T03:36:42.120Z,5.05
2023-01-13T03:39:13.550Z,4.80
2023-01-13T03:41:45.489Z,5.90
2023-01-13T03:44:23.129Z,5.13
2023-01-13T03:47:00.402Z,5.30
2023-01-13T03:49:37.397Z,6.50
2023-01-13T03:52:10.977Z,5.53
2023-01-13T03:57:17.100Z,5.35
2023-01-13T03:59:50.131Z,5.78
2023-01-13T04:02:26.729Z,6.82
2023-01-13T04:04:59.174Z,6.55
2023-01-13T04:07:38.265Z,6.18
2023-01-13T04:10:08.910Z,5.40
2023-01-13T04:12:59.057Z,5.57
2023-01-13T04:15:29.639Z,5.50
2023-01-13T04:18:04.052Z,5.38
2023-01-13T04:20:33.483Z,4.80
2023-01-13T04:23:01.552Z,5.97
2023-01-13T04:25:29.439Z,6.07
2023-01-13T04:27:57.303Z,5.47
2023-01-13T04:30:25.559Z,6.30
2023-01-13T04:32:53.419Z,6.13
2023-01-13T04:35:21.367Z,6.38
2023-01-13T04:37:50.885Z,5.50
2023-01-13T04:40:19.114Z,5.75
2023-01-13T04:42:47.349Z,4.72
2023-01-13T04:45:15.927Z,6.72
2023-01-13T04:47:43.841Z,6.65
2023-01-13T04:50:12.988Z,6.82
2023-01-13T04:52:41.167Z,6.57
2023-01-13T04:55:11.852Z,5.32
2023-01-13T04:57:39.814Z,5.18
2023-01-13T05:00:10.703Z,5.53
2023-01-13T05:02:38.974Z,5.82
2023-01-13T05:05:08.686Z,6.45
2023-01-13T05:07:36.897Z,6.10
2023-01-13T05:10:05.506Z,6.38
2023-01-13T05:12:52.464Z,5.35
2023-01-13T05:15:38.310Z,5.55
2023-01-13T05:18:06.917Z,5.55
2023-01-13T05:20:35.579Z,5.07
2023-01-13T05:23:20.787Z,5.63
2023-01-13T05:25:50.174Z,5.22
2023-01-13T05:28:19.621Z,5.18
2023-01-13T05:30:49.588Z,5.32
2023-01-13T05:33:20.315Z,5.68
2023-01-13T05:35:48.957Z,5.28
2023-01-13T05:38:18.083Z,4.97
2023-01-13T05:41:03.562Z,5.22
2023-01-13T05:43:34.742Z,5.13
2023-01-13T05:46:04.392Z,5.72
2023-01-13T05:48:34.493Z,6.00
2023-01-13T05:51:03.840Z,4.38
2023-01-13T05:53:32.666Z,4.80
2023-01-13T05:56:00.860Z,4.90
2023-01-13T05:58:29.357Z,3.53
2023-01-13T06:01:04.224Z,3.70
2023-01-13T06:03:32.756Z,6.00
2023-01-13T06:06:02.573Z,3.17
2023-01-13T06:08:31.866Z,3.92
2023-01-13T06:11:00.096Z,5.35
2023-01-13T06:13:28.151Z,4.93
2023-01-13T06:15:59.280Z,5.13
2023-01-13T06:18:29.653Z,5.55
2023-01-13T06:20:57.863Z,5.70
2023-01-13T06:23:25.971Z,5.60
2023-01-13T06:26:01.841Z,5.13
2023-01-13T06:28:30.589Z,3.78
2023-01-13T06:31:02.364Z,4.35
2023-01-13T06:33:36.531Z,3.65
2023-01-13T06:36:11.275Z,4.93
2023-01-13T06:38:45.279Z,4.60
2023-01-13T06:41:13.299Z,4.55
2023-01-13T06:43:40.624Z,3.97
2023-01-13T06:46:09.045Z,4.75
2023-01-13T06:48:38.395Z,4.25
2023-01-13T06:51:06.958Z,4.53
2023-01-13T06:53:35.036Z,4.18
2023-01-13T06:56:03.611Z,4.95
2023-01-13T06:58:31.959Z,4.68
2023-01-13T07:01:01.881Z,4.95
2023-01-13T07:03:30.278Z,4.80
2023-01-13T07:06:00.486Z,4.72
2023-01-13T07:08:29.085Z,3.53
2023-01-13T07:10:57.220Z,3.72
2023-01-13T07:13:43.074Z,3.90
2023-01-13T07:16:11.080Z,5.15
2023-01-13T07:18:40.221Z,4.38
2023-01-13T07:21:12.448Z,5.55
2023-01-13T07:26:11.351Z,4.38
2023-01-13T07:28:39.950Z,4.05
2023-01-13T07:31:15.040Z,3.38
2023-01-13T07:33:42.987Z,4.43
2023-01-13T07:36:12.908Z,4.82
2023-01-13T07:38:41.534Z,4.18
2023-01-13T07:41:32.079Z,4.30
2023-01-13T07:44:05.051Z,3.28
2023-01-13T07:46:33.160Z,3.57
2023-01-13T07:49:01.120Z,5.53
2023-01-13T07:51:31.132Z,3.75
2023-01-13T07:53:59.385Z,3.70
2023-01-13T07:56:27.309Z,4.78
2023-01-13T07:58:55.550Z,4.10
2023-01-13T08:01:23.763Z,3.20
2023-01-13T08:03:51.760Z,4.13
2023-01-13T08:06:19.841Z,7.68
2023-01-13T08:08:49.254Z,4.93
2023-01-13T08:11:17.540Z,3.90
2023-01-13T08:13:45.918Z,5.78
2023-01-13T08:16:16.410Z,4.63
2023-01-13T08:18:44.631Z,4.10
2023-01-13T08:21:14.747Z,5.55
2023-01-13T08:23:44.620Z,4.00
2023-01-13T08:26:15.961Z,5.03
2023-01-13T08:28:44.081Z,5.53
2023-01-13T08:31:13.819Z,5.00
2023-01-13T08:33:42.249Z,4.72
2023-01-13T08:36:13.071Z,5.05
2023-01-13T08:38:43.500Z,4.38
2023-01-13T08:41:14.249Z,4.93
2023-01-13T08:43:42.175Z,4.72
2023-01-13T08:46:10.190Z,5.13
2023-01-13T08:48:38.240Z,4.88
2023-01-13T08:51:08.781Z,6.90
2023-01-13T08:53:37.088Z,4.38
2023-01-13T08:56:10.844Z,4.90
2023-01-13T08:58:41.060Z,5.25
2023-01-13T09:01:10.173Z,4.95
2023-01-13T09:03:39.098Z,4.97
2023-01-13T09:06:07.515Z,5.38
2023-01-13T09:08:35.733Z,4.07
2023-01-13T09:11:24.149Z,6.05
2023-01-13T09:13:53.166Z,4.82
2023-01-13T09:16:21.364Z,5.22
2023-01-13T09:18:49.559Z,4.57
2023-01-13T09:21:19.724Z,4.68
2023-01-13T09:23:48.205Z,4.45
2023-01-13T09:26:20.479Z,4.38
2023-01-13T09:28:48.760Z,3.60
2023-01-13T09:31:18.185Z,4.78
2023-01-13T09:34:04.776Z,4.18
2023-01-13T09:36:32.896Z,4.35
2023-01-13T09:39:00.817Z,3.70
2023-01-13T09:41:49.854Z,4.50
2023-01-13T09:44:23.387Z,4.03
2023-01-13T09:46:58.921Z,4.15
2023-01-13T09:49:34.828Z,4.32
2023-01-13T09:52:07.012Z,4.38
2023-01-13T09:54:42.150Z,4.82
2023-01-13T09:57:12.493Z,4.72
2023-01-13T09:59:40.652Z,5.60
2023-01-13T10:02:27.965Z,4.97
2023-01-13T10:05:08.540Z,3.92
2023-01-13T10:07:42.902Z,5.25
2023-01-13T10:10:18.320Z,3.75
2023-01-13T10:13:07.690Z,3.53
2023-01-13T10:15:37.351Z,4.40
2023-01-13T10:18:16.766Z,5.20
2023-01-13T10:20:58.295Z,3.75
2023-01-13T10:23:57.765Z,3.60
2023-01-13T10:26:45.064Z,3.80
2023-01-13T10:29:25.273Z,3.25
2023-01-13T10:31:54.363Z,4.35
2023-01-13T10:34:25.321Z,4.70
2023-01-13T10:37:03.441Z,4.70
2023-01-13T10:39:41.838Z,5.03
2023-01-13T10:42:15.988Z,3.70
2023-01-13T10:44:50.386Z,4.82
2023-01-13T10:47:24.142Z,4.53
2023-01-13T10:50:18.758Z,4.95
2023-01-13T10:52:59.343Z,3.85
2023-01-13T10:55:32.216Z,4.05
2023-01-13T10:58:13.139Z,4.22
2023-01-13T11:00:41.465Z,4.72
2023-01-13T11:03:18.765Z,4.50
2023-01-13T11:05:54.445Z,4.18
2023-01-13T11:08:25.620Z,4.07
2023-01-13T11:10:56.007Z,5.43
2023-01-13T11:13:31.761Z,4.10
2023-01-13T11:16:05.082Z,4.18
2023-01-13T11:18:43.802Z,4.13
2023-01-13T11:21:22.539Z,4.75
2023-01-13T11:24:03.190Z,3.58
2023-01-13T11:26:42.114Z,4.30
2023-01-13T11:29:15.984Z,3.72
2023-01-13T11:31:49.644Z,3.80
2023-01-13T11:34:30.067Z,3.65
2023-01-13T11:37:01.720Z,3.40
2023-01-13T11:39:45.655Z,4.15
2023-01-13T11:42:22.444Z,3.90
2023-01-13T11:44:56.883Z,4.22
2023-01-13T11:47:27.331Z,5.03
2023-01-13T11:49:55.980Z,3.25
2023-01-13T11:52:34.375Z,3.75
2023-01-13T11:55:15.969Z,2.97
2023-01-13T11:58:12.392Z,4.07
2023-01-13T12:01:17.609Z,3.63
2023-01-13T12:03:51.437Z,3.58
2023-01-13T12:06:25.931Z,3.35
2023-01-13T12:09:21.296Z,2.63
2023-01-13T12:12:23.049Z,3.55
2023-01-13T12:15:08.936Z,3.35
2023-01-13T12:17:47.455Z,3.13
2023-01-13T12:20:27.956Z,3.28
2023-01-13T12:23:02.465Z,3.42
2023-01-13T12:25:39.519Z,3.40
2023-01-13T12:28:15.465Z,2.88
2023-01-13T12:30:50.798Z,2.75
2023-01-13T12:33:29.684Z,2.90
2023-01-13T12:36:07.236Z,3.03
2023-01-13T12:38:41.226Z,3.25
2023-01-13T12:41:23.429Z,3.03
2023-01-13T12:44:11.194Z,3.58
2023-01-13T12:46:47.358Z,3.38
2023-01-13T12:49:30.574Z,3.92
2023-01-13T12:52:18.475Z,2.50
2023-01-13T12:55:05.349Z,3.08
2023-01-13T12:57:37.294Z,2.65
2023-01-13T13:00:18.872Z,2.50
2023-01-13T13:03:20.564Z,4.07
2023-01-13T13:06:08.783Z,3.00
2023-01-13T13:08:47.511Z,2.60
2023-01-13T13:11:58.109Z,4.00
2023-01-13T13:15:04.480Z,2.60
2023-01-13T13:18:01.120Z,3.22
2023-01-13T13:21:05.783Z,3.08
2023-01-13T13:23:49.076Z,3.00
2023-01-13T13:26:25.034Z,3.45
2023-01-13T13:29:07.024Z,3.15
2023-01-13T13:31:56.155Z,2.35
2023-01-13T13:34:31.400Z,2.88
2023-01-13T13:37:28.346Z,3.00
2023-01-13T13:40:14.271Z,2.67
2023-01-13T13:43:02.702Z,3.13
2023-01-13T13:45:49.384Z,2.15
2023-01-13T13:48:25.864Z,4.78
2023-01-13T13:50:58.261Z,2.92
2023-01-13T13:53:29.670Z,2.65
2023-01-13T13:56:00.778Z,2.95
2023-01-13T13:58:31.927Z,2.58
2023-01-13T14:01:01.624Z,2.15
2023-01-13T14:03:33.736Z,2.65
2023-01-13T14:06:04.151Z,1.92
2023-01-13T14:08:35.617Z,2.67
2023-01-13T14:11:17.609Z,2.50
2023-01-13T14:13:45.737Z,2.17
2023-01-13T14:16:16.221Z,2.85
2023-01-13T14:18:47.447Z,3.47
2023-01-13T14:21:21.422Z,3.28
2023-01-13T14:23:53.090Z,2.05
2023-01-13T14:26:25.856Z,2.63
2023-01-13T14:28:54.695Z,2.45
2023-01-13T14:31:24.095Z,2.33
2023-01-13T14:33:57.515Z,3.58
2023-01-13T14:36:35.840Z,3.00
2023-01-13T14:39:26.629Z,3.53
2023-01-13T14:41:55.016Z,3.25
2023-01-13T14:44:26.963Z,3.40
2023-01-13T14:46:57.200Z,3.22
2023-01-13T14:49:32.264Z,2.50
2023-01-13T14:52:13.808Z,2.80
2023-01-13T14:54:50.363Z,2.78
2023-01-13T14:57:28.590Z,2.45
2023-01-13T15:00:08.345Z,3.22
2023-01-13T15:02:44.379Z,3.88
2023-01-13T15:05:33.498Z,3.45
2023-01-13T15:08:06.171Z,3.22
2023-01-13T15:10:38.302Z,2.80
2023-01-13T15:13:07.710Z,2.63
2023-01-13T15:15:39.356Z,1.92
2023-01-13T15:18:14.143Z,1.80
2023-01-13T15:20:44.237Z,2.00
2023-01-13T15:23:12.478Z,3.30
2023-01-13T15:25:42.808Z,2.75
2023-01-13T15:28:18.657Z,3.08
2023-01-13T15:30:47.847Z,3.10
2023-01-13T15:33:17.312Z,2.88
2023-01-13T15:35:49.646Z,3.78
2023-01-13T15:38:20.477Z,2.88
2023-01-13T15:40:49.996Z,2.83
2023-01-13T15:43:37.436Z,2.90
2023-01-13T15:46:29.155Z,3.63
2023-01-13T15:48:57.708Z,2.60
2023-01-13T15:51:28.379Z,2.05
2023-01-13T15:54:00.910Z,1.20
2023-01-13T15:56:29.705Z,1.43
2023-01-13T15:58:58.381Z,1.20
2023-01-13T16:01:26.396Z,1.52
2023-01-13T16:03:56.496Z,1.38
2023-01-13T16:06:33.359Z,1.80
2023-01-13T16:09:03.586Z,2.42
2023-01-13T16:11:32.223Z,1.75
2023-01-13T16:14:00.561Z,2.60
2023-01-13T16:16:29.824Z,3.20
2023-01-13T16:18:58.072Z,3.13
2023-01-13T16:21:26.886Z,2.63
2023-01-13T16:23:57.169Z,3.13
2023-01-13T16:26:27.216Z,2.55
2023-01-13T16:28:57.367Z,2.20
2023-01-13T16:31:29.202Z,2.03
2023-01-13T16:33:57.752Z,1.55
2023-01-13T16:36:25.787Z,1.73
2023-01-13T16:38:54.820Z,2.10
2023-01-13T16:41:25.720Z,2.30
2023-01-13T16:43:54.707Z,2.30
2023-01-13T16:46:25.830Z,3.00
2023-01-13T16:48:54.791Z,2.78
2023-01-13T16:51:24.376Z,3.03
2023-01-13T16:53:53.019Z,2.70
2023-01-13T16:56:26.662Z,3.22
2023-01-13T16:58:56.881Z,3.20
2023-01-13T17:01:27.252Z,3.38
2023-01-13T17:03:57.037Z,2.67
2023-01-13T17:06:28.437Z,2.70
2023-01-13T17:09:01.441Z,2.50
2023-01-13T17:11:30.956Z,2.58
2023-01-13T17:13:58.938Z,2.95
2023-01-13T17:16:28.155Z,2.92
2023-01-13T17:18:56.637Z,2.00
2023-01-13T17:21:24.829Z,2.17
2023-01-13T17:23:53.003Z,2.30
2023-01-13T17:26:33.473Z,2.45
2023-01-13T17:29:02.449Z,2.17
2023-01-13T17:31:31.211Z,2.45
2023-01-13T17:33:59.689Z,2.60
2023-01-13T17:36:27.659Z,3.17
2023-01-13T17:38:57.412Z,2.45
2023-01-13T17:41:26.704Z,3.25
2023-01-13T17:43:58.906Z,3.60
2023-01-13T17:46:27.166Z,4.55
2023-01-13T17:48:56.184Z,3.05
2023-01-13T17:51:25.049Z,2.92
2023-01-13T17:53:54.682Z,2.80
2023-01-13T17:56:24.711Z,4.13
2023-01-13T17:58:52.961Z,3.78
2023-01-13T18:01:23.559Z,3.60
2023-01-13T18:03:52.130Z,4.00
2023-01-13T18:06:22.535Z,2.95
2023-01-13T18:08:51.446Z,3.80
2023-01-13T18:11:21.207Z,3.17
2023-01-13T18:13:51.467Z,2.58
2023-01-13T18:16:22.614Z,3.10
2023-01-13T18:18:53.362Z,2.88
2023-01-13T18:21:40.882Z,3.38
2023-01-13T18:24:30.241Z,3.13
2023-01-13T18:27:15.511Z,2.35
2023-01-13T18:29:43.912Z,3.47
2023-01-13T18:32:13.799Z,3.42
2023-01-13T18:34:42.434Z,2.85
2023-01-13T18:37:14.127Z,3.13
2023-01-13T18:39:42.589Z,3.72
2023-01-13T18:42:29.668Z,3.17
2023-01-13T18:44:58.631Z,3.45
2023-01-13T18:47:30.778Z,2.85
2023-01-13T18:49:59.297Z,3.33
2023-01-13T18:52:27.805Z,2.97
2023-01-13T18:54:55.767Z,3.08
2023-01-13T18:57:23.668Z,3.03
2023-01-13T18:59:51.880Z,2.72
2023-01-13T19:02:21.849Z,2.90
2023-01-13T19:04:51.279Z,3.05
2023-01-13T19:07:24.404Z,3.05
2023-01-13T19:09:52.581Z,4.60
2023-01-13T19:12:26.059Z,3.83
2023-01-13T19:17:25.100Z,3.40
2023-01-13T19:19:57.361Z,2.63
2023-01-13T19:22:28.503Z,4.18
2023-01-13T19:24:56.954Z,3.83
2023-01-13T19:27:25.848Z,3.30
2023-01-13T19:29:54.141Z,3.22
2023-01-13T19:32:22.906Z,3.55
2023-01-13T19:34:51.419Z,3.22
2023-01-13T19:37:21.560Z,2.53
2023-01-13T19:39:49.483Z,3.38
2023-01-13T19:42:35.055Z,3.17
2023-01-13T19:45:20.546Z,3.13
2023-01-13T19:47:48.576Z,4.72
2023-01-13T19:50:17.377Z,3.88
2023-01-13T19:52:47.376Z,2.97
2023-01-13T19:55:15.500Z,1.55
2023-01-13T19:57:44.235Z,1.40
2023-01-13T20:00:15.327Z,1.13
2023-01-13T20:02:48.728Z,1.00
2023-01-13T20:05:21.378Z,1.00
2023-01-13T20:07:51.429Z,1.20
2023-01-13T20:10:21.000Z,0.77
2023-01-13T20:12:49.147Z,0.88
2023-01-13T20:15:17.917Z,0.80
2023-01-13T20:17:46.003Z,0.95
2023-01-13T20:20:15.874Z,0.73
2023-01-13T20:22:44.370Z,0.60
2023-01-13T20:25:16.947Z,0.98
2023-01-13T20:27:45.607Z,0.43
2023-01-13T20:30:14.918Z,0.57
2023-01-13T20:32:44.311Z,0.82
2023-01-13T20:35:13.000Z,1.15
2023-01-13T20:37:42.975Z,1.45
2023-01-13T20:40:14.904Z,1.17
2023-01-13T20:42:45.110Z,1.40
2023-01-13T20:45:17.614Z,1.75
2023-01-13T20:47:46.419Z,1.33
2023-01-13T20:50:16.193Z,1.63
2023-01-13T20:52:44.668Z,1.80
2023-01-13T20:55:13.485Z,1.73
2023-01-13T20:57:42.088Z,2.30
2023-01-13T21:00:12.770Z,1.52
2023-01-13T21:02:41.928Z,2.72
2023-01-13T21:05:10.369Z,2.20
2023-01-13T21:07:38.586Z,1.70
2023-01-13T21:10:11.468Z,2.15
2023-01-13T21:12:57.234Z,2.78
2023-01-13T21:15:27.494Z,1.90
2023-01-13T21:18:12.967Z,2.00
2023-01-13T21:20:41.346Z,2.08
2023-01-13T21:23:11.290Z,2.03
2023-01-13T21:25:40.550Z,1.52
2023-01-13T21:28:11.475Z,2.00
2023-01-13T21:30:41.677Z,2.03
2023-01-13T21:33:14.668Z,2.67
2023-01-13T21:35:43.001Z,2.55
2023-01-13T21:38:12.095Z,2.22
2023-01-13T21:40:40.801Z,1.85
2023-01-13T21:43:30.472Z,2.20
2023-01-13T21:46:17.554Z,1.80
2023-01-13T21:48:45.517Z,2.38
2023-01-13T21:51:13.506Z,2.33
2023-01-13T21:53:41.817Z,1.70
2023-01-13T21:56:35.137Z,2.38
2023-01-13T21:59:03.127Z,2.10
2023-01-13T22:01:32.552Z,2.83
2023-01-13T22:04:15.747Z,2.00
2023-01-13T22:06:43.671Z,2.60
2023-01-13T22:09:12.748Z,2.15
2023-01-13T22:11:40.971Z,2.53
2023-01-13T22:14:10.057Z,2.08
2023-01-13T22:16:42.195Z,1.67
2023-01-13T22:19:11.124Z,2.10
2023-01-13T22:21:39.757Z,2.97
2023-01-13T22:24:08.453Z,2.83
2023-01-13T22:26:36.509Z,2.15
2023-01-13T22:29:04.881Z,2.95
2023-01-13T22:31:32.992Z,2.35
2023-01-13T22:34:02.481Z,2.65
2023-01-13T22:36:30.531Z,1.83
2023-01-13T22:39:00.471Z,2.55
2023-01-13T22:41:28.558Z,1.77
2023-01-13T22:43:57.844Z,1.50
2023-01-13T22:46:26.872Z,1.33
2023-01-13T22:48:56.515Z,1.63
2023-01-13T22:51:26.927Z,1.95
2023-01-13T22:53:55.625Z,1.52
2023-01-13T22:56:26.089Z,1.38
2023-01-13T22:58:55.052Z,1.77
2023-01-13T23:01:24.309Z,3.03
2023-01-13T23:03:52.962Z,2.78
2023-01-13T23:06:23.928Z,2.83
2023-01-13T23:08:53.931Z,2.55
2023-01-13T23:11:24.827Z,2.63
2023-01-13T23:14:00.413Z,2.53
2023-01-13T23:16:30.382Z,3.25
2023-01-13T23:18:58.643Z,2.65
2023-01-13T23:21:28.232Z,4.80
2023-01-13T23:24:01.391Z,2.90
2023-01-13T23:26:30.891Z,2.40
2023-01-13T23:29:00.580Z,2.97
2023-01-13T23:31:28.600Z,3.28
2023-01-13T23:33:56.706Z,3.92
2023-01-13T23:36:26.306Z,3.65
2023-01-13T23:38:55.170Z,3.65
2023-01-13T23:41:25.843Z,2.80
2023-01-13T23:43:55.144Z,3.70
2023-01-13T23:46:23.473Z,2.85
2023-01-13T23:48:52.391Z,3.38
2023-01-13T23:51:21.791Z,3.50
2023-01-13T23:53:51.093Z,3.72
2023-01-13T23:56:20.701Z,4.30
2023-01-13T23:58:50.553Z,4.38
